Sarfaq Ittuk — OWDD — position and weather

sailwx.info

Track history (hours):
 
Tides and Currents Weather Stations Pressure Air Temp Water Temp Dewpoint Dewpoint Depression Visibility Wind Speed Wind Dir Waves Ship Positions

Sarfaq Ittuk

Last reported at 2018-Dec-11 07:30 UTC. Time now 2018-Dec-11 07:49 UTC.
Position N 64°12' W 052°23'.

Length 73 m; beam 11.1 m; draft 3.7 m.

Type: Passenger vessel. MMSI: 331000499.

Date/timePositionNaut miles runAvg speedWind from/ knotsBaromVisibWave heightAir tempDewpointWater temp
2018-Dec-11 07:30N 64°12' W 052°23'510.5
2018-Dec-11 07:00N 64°17' W 052°26'510.6
2018-Dec-11 06:31N 64°22' W 052°29'611.1
2018-Dec-11 06:00N 64°28' W 052°32'611.6
2018-Dec-11 05:31N 64°33' W 052°35'611.7
2018-Dec-11 05:01N 64°39' W 052°37'611.9
2018-Dec-11 04:30N 64°45' W 052°40'612.0
2018-Dec-11 04:00N 64°51' W 052°42'611.8
2018-Dec-11 03:30N 64°57' W 052°45'612.1
2018-Dec-11 03:00N 65°03' W 052°48'611.7
2018-Dec-11 02:29N 65°09' W 052°50'25 8.3
2018-Dec-10 23:28N 65°34' W 052°50'15 8.6
2018-Dec-10 21:40N 65°43' W 053°20'210.9
2018-Dec-10 21:27N 65°46' W 053°19'  
2018-Dec-08 06:44N 65°06' W 052°49'2 9.6
2018-Dec-08 06:30N 65°04' W 052°48'510.5
2018-Dec-08 06:00N 64°59' W 052°46'510.3
2018-Dec-08 05:30N 64°54' W 052°44'510.3
2018-Dec-08 05:00N 64°48' W 052°41'5 9.8
2018-Dec-08 04:30N 64°44' W 052°39'5 9.6
2018-Dec-08 04:01N 64°39' W 052°37'510.3
2018-Dec-08 03:30N 64°34' W 052°35'510.3
2018-Dec-08 03:00N 64°29' W 052°33'510.5
2018-Dec-08 02:30N 64°24' W 052°30'510.5
2018-Dec-08 02:00N 64°19' W 052°27'510.1
2018-Dec-08 01:30N 64°14' W 052°24'5 9.9
2018-Dec-08 01:00N 64°09' W 052°20'510.4
2018-Dec-08 00:30N 64°05' W 052°12'4 8.5
2018-Dec-08 00:00N 64°05' W 052°03'611.5
2018-Dec-07 23:30N 64°08' W 051°51'4 8.6
2018-Dec-07 23:00N 64°10' W 051°43'0 0.0
2018-Dec-07 22:31N 64°10' W 051°43'0 0.0
2018-Dec-07 22:00N 64°10' W 051°43'0 0.0
2018-Dec-07 21:30N 64°10' W 051°43'0 0.0
2018-Dec-07 21:01N 64°10' W 051°43'0 0.0
2018-Dec-07 20:30N 64°10' W 051°43'0 0.0
2018-Dec-07 20:00N 64°10' W 051°43'0 0.0
2018-Dec-07 19:30N 64°10' W 051°43'0 0.0
2018-Dec-07 19:00N 64°10' W 051°43'0 0.0
2018-Dec-07 18:30N 64°10' W 051°43'0 0.0
2018-Dec-07 18:00N 64°10' W 051°43'0 0.0
2018-Dec-07 17:30N 64°10' W 051°43'0 0.0
2018-Dec-07 17:00N 64°10' W 051°43'0 0.0
2018-Dec-07 16:30N 64°10' W 051°43'0 0.0
2018-Dec-07 16:00N 64°10' W 051°43'0 0.0
2018-Dec-07 15:30N 64°10' W 051°43'0 0.0
2018-Dec-07 15:00N 64°10' W 051°43'0 0.0
2018-Dec-07 14:30N 64°10' W 051°43'0 0.0
2018-Dec-07 14:00N 64°10' W 051°43'0 0.0
2018-Dec-07 13:30N 64°10' W 051°43'0 0.0
2018-Dec-07 13:01N 64°10' W 051°43'0 0.0
2018-Dec-07 12:30N 64°10' W 051°43'0 0.0
2018-Dec-07 12:01N 64°10' W 051°43'0 0.0
2018-Dec-07 11:31N 64°10' W 051°43'0 0.0
2018-Dec-07 11:00N 64°10' W 051°43'0 0.0
2018-Dec-07 10:30N 64°10' W 051°43'3 5.9
2018-Dec-07 10:00N 64°08' W 051°40'5 9.4
2018-Dec-07 09:30N 64°03' W 051°38'4 8.8
2018-Dec-07 09:00N 63°59' W 051°39'5 9.4
2018-Dec-07 08:30N 63°55' W 051°33'5 9.4
2018-Dec-07 07:59N 63°50' W 051°34'4 9.2
2018-Dec-07 07:30N 63°45' W 051°36'  
2018-Dec-04 15:51N 63°29' W 051°34'1510.3
2018-Dec-04 14:26N 63°44' W 051°36'511.7
2018-Dec-04 13:59N 63°49' W 051°35'811.3
2018-Dec-04 13:16N 63°57' W 051°36'312.4
2018-Dec-04 13:00N 63°59' W 051°40'612.1
2018-Dec-04 12:30N 64°05' W 051°39'510.4
2018-Dec-04 12:00N 64°10' W 051°43'0 0.0
2018-Dec-04 11:30N 64°10' W 051°43'0 0.0
2018-Dec-04 11:00N 64°10' W 051°43'0 0.0
2018-Dec-04 10:30N 64°10' W 051°43'0 0.0
2018-Dec-04 10:01N 64°10' W 051°43'2 4.9
2018-Dec-04 09:30N 64°09' W 051°48'5 9.9
2018-Dec-04 09:00N 64°06' W 051°58'5 9.8
2018-Dec-04 08:30N 64°04' W 052°07'5 9.7
2018-Dec-04 08:00N 64°07' W 052°16'510.7
2018-Dec-04 07:30N 64°11' W 052°23'611.1
2018-Dec-04 07:00N 64°17' W 052°26'510.9
2018-Dec-04 06:30N 64°22' W 052°29'511.0
2018-Dec-04 06:00N 64°27' W 052°32'611.4
2018-Dec-04 05:30N 64°33' W 052°35'612.2
2018-Dec-04 05:01N 64°39' W 052°37'611.8
2018-Dec-04 04:30N 64°45' W 052°40'611.6
2018-Dec-04 04:00N 64°50' W 052°42'611.7
2018-Dec-04 03:30N 64°56' W 052°45'611.6
2018-Dec-04 03:00N 65°02' W 052°47'611.8
2018-Dec-04 02:30N 65°08' W 052°50'611.9
2018-Dec-04 01:59N 65°14' W 052°51'32 7.4
2018-Dec-03 21:41N 65°43' W 053°20'  
Track history (hours):
 
Tides and Currents Weather Stations Pressure Air Temp Water Temp Dewpoint Dewpoint Depression Visibility Wind Speed Wind Dir Waves Ship Positions

Sarfaq Ittuk

Last reported at 2018-Dec-11 07:30 UTC. Time now 2018-Dec-11 07:49 UTC.
Position N 64°12' W 052°23'.

Length 73 m; beam 11.1 m; draft 3.7 m.

Type: Passenger vessel. MMSI: 331000499.

Date/timePositionNaut miles runAvg speedWind from/ knotsBaromVisibWave heightAir tempDewpointWater temp
2018-Dec-11 07:30N 64°12' W 052°23'510.5
2018-Dec-11 07:00N 64°17' W 052°26'510.6
2018-Dec-11 06:31N 64°22' W 052°29'611.1
2018-Dec-11 06:00N 64°28' W 052°32'611.6
2018-Dec-11 05:31N 64°33' W 052°35'611.7
2018-Dec-11 05:01N 64°39' W 052°37'611.9
2018-Dec-11 04:30N 64°45' W 052°40'612.0
2018-Dec-11 04:00N 64°51' W 052°42'611.8
2018-Dec-11 03:30N 64°57' W 052°45'612.1
2018-Dec-11 03:00N 65°03' W 052°48'611.7
2018-Dec-11 02:29N 65°09' W 052°50'25 8.3
2018-Dec-10 23:28N 65°34' W 052°50'15 8.6
2018-Dec-10 21:40N 65°43' W 053°20'210.9
2018-Dec-10 21:27N 65°46' W 053°19'  
2018-Dec-08 06:44N 65°06' W 052°49'2 9.6
2018-Dec-08 06:30N 65°04' W 052°48'510.5
2018-Dec-08 06:00N 64°59' W 052°46'510.3
2018-Dec-08 05:30N 64°54' W 052°44'510.3
2018-Dec-08 05:00N 64°48' W 052°41'5 9.8
2018-Dec-08 04:30N 64°44' W 052°39'5 9.6
2018-Dec-08 04:01N 64°39' W 052°37'510.3
2018-Dec-08 03:30N 64°34' W 052°35'510.3
2018-Dec-08 03:00N 64°29' W 052°33'510.5
2018-Dec-08 02:30N 64°24' W 052°30'510.5
2018-Dec-08 02:00N 64°19' W 052°27'510.1
2018-Dec-08 01:30N 64°14' W 052°24'5 9.9
2018-Dec-08 01:00N 64°09' W 052°20'510.4
2018-Dec-08 00:30N 64°05' W 052°12'4 8.5
2018-Dec-08 00:00N 64°05' W 052°03'611.5
2018-Dec-07 23:30N 64°08' W 051°51'4 8.6
2018-Dec-07 23:00N 64°10' W 051°43'0 0.0
2018-Dec-07 22:31N 64°10' W 051°43'0 0.0
2018-Dec-07 22:00N 64°10' W 051°43'0 0.0
2018-Dec-07 21:30N 64°10' W 051°43'0 0.0
2018-Dec-07 21:01N 64°10' W 051°43'0 0.0
2018-Dec-07 20:30N 64°10' W 051°43'0 0.0
2018-Dec-07 20:00N 64°10' W 051°43'0 0.0
2018-Dec-07 19:30N 64°10' W 051°43'0 0.0
2018-Dec-07 19:00N 64°10' W 051°43'0 0.0
2018-Dec-07 18:30N 64°10' W 051°43'0 0.0
2018-Dec-07 18:00N 64°10' W 051°43'0 0.0
2018-Dec-07 17:30N 64°10' W 051°43'0 0.0
2018-Dec-07 17:00N 64°10' W 051°43'0 0.0
2018-Dec-07 16:30N 64°10' W 051°43'0 0.0
2018-Dec-07 16:00N 64°10' W 051°43'0 0.0
2018-Dec-07 15:30N 64°10' W 051°43'0 0.0
2018-Dec-07 15:00N 64°10' W 051°43'0 0.0
2018-Dec-07 14:30N 64°10' W 051°43'0 0.0
2018-Dec-07 14:00N 64°10' W 051°43'0 0.0
2018-Dec-07 13:30N 64°10' W 051°43'0 0.0
2018-Dec-07 13:01N 64°10' W 051°43'0 0.0
2018-Dec-07 12:30N 64°10' W 051°43'0 0.0
2018-Dec-07 12:01N 64°10' W 051°43'0 0.0
2018-Dec-07 11:31N 64°10' W 051°43'0 0.0
2018-Dec-07 11:00N 64°10' W 051°43'0 0.0
2018-Dec-07 10:30N 64°10' W 051°43'3 5.9
2018-Dec-07 10:00N 64°08' W 051°40'5 9.4
2018-Dec-07 09:30N 64°03' W 051°38'4 8.8
2018-Dec-07 09:00N 63°59' W 051°39'5 9.4
2018-Dec-07 08:30N 63°55' W 051°33'5 9.4
2018-Dec-07 07:59N 63°50' W 051°34'4 9.2
2018-Dec-07 07:30N 63°45' W 051°36'  
2018-Dec-04 15:51N 63°29' W 051°34'1510.3
2018-Dec-04 14:26N 63°44' W 051°36'511.7
2018-Dec-04 13:59N 63°49' W 051°35'811.3
2018-Dec-04 13:16N 63°57' W 051°36'312.4
2018-Dec-04 13:00N 63°59' W 051°40'612.1
2018-Dec-04 12:30N 64°05' W 051°39'510.4
2018-Dec-04 12:00N 64°10' W 051°43'0 0.0
2018-Dec-04 11:30N 64°10' W 051°43'0 0.0
2018-Dec-04 11:00N 64°10' W 051°43'0 0.0
2018-Dec-04 10:30N 64°10' W 051°43'0 0.0
2018-Dec-04 10:01N 64°10' W 051°43'2 4.9
2018-Dec-04 09:30N 64°09' W 051°48'5 9.9
2018-Dec-04 09:00N 64°06' W 051°58'5 9.8
2018-Dec-04 08:30N 64°04' W 052°07'5 9.7
2018-Dec-04 08:00N 64°07' W 052°16'510.7
2018-Dec-04 07:30N 64°11' W 052°23'611.1
2018-Dec-04 07:00N 64°17' W 052°26'510.9
2018-Dec-04 06:30N 64°22' W 052°29'511.0
2018-Dec-04 06:00N 64°27' W 052°32'611.4
2018-Dec-04 05:30N 64°33' W 052°35'612.2
2018-Dec-04 05:01N 64°39' W 052°37'611.8
2018-Dec-04 04:30N 64°45' W 052°40'611.6
2018-Dec-04 04:00N 64°50' W 052°42'611.7
2018-Dec-04 03:30N 64°56' W 052°45'611.6
2018-Dec-04 03:00N 65°02' W 052°47'611.8
2018-Dec-04 02:30N 65°08' W 052°50'611.9
2018-Dec-04 01:59N 65°14' W 052°51'32 7.4
2018-Dec-03 21:41N 65°43' W 053°20'  

Dump ship's entire track history